Time;durP1;ratioP1;P1;durP2;ratioP2;P2;SDS_P1;SDS_P2;PMS_P1;PMS_P2;Temp;Humidity;BMP_temperature;BMP_pressure;BME280_temperature;BME280_humidity;BME280_pressure;Samples;Min_cycle;Max_cycle;Signal;HPM_P1;HPM_P2
2021/11/24 00:00:26;;;;;;;16.70;12.25;;;7.60;99.90;;;;;;5057142;28;20033;-83
2021/11/24 00:02:52;;;;;;;15.88;11.77;;;7.50;99.90;;;;;;5054793;28;20025;-84
2021/11/24 00:05:19;;;;;;;14.85;12.15;;;7.60;99.90;;;;;;5054183;28;20064;-83
2021/11/24 00:07:45;;;;;;;15.38;12.20;;;7.50;99.90;;;;;;5054359;28;20507;-83
2021/11/24 00:10:16;;;;;;;15.30;12.60;;;7.50;99.90;;;;;;5049877;28;20036;-84
2021/11/24 00:12:43;;;;;;;19.17;12.60;;;7.50;99.90;;;;;;5046083;28;20393;-84
2021/11/24 00:15:12;;;;;;;15.73;12.48;;;7.50;99.90;;;;;;5053733;28;20021;-84
2021/11/24 00:17:43;;;;;;;17.02;13.15;;;7.50;99.90;;;;;;5054421;28;20036;-85
2021/11/24 00:20:13;;;;;;;17.35;12.73;;;7.20;99.90;;;;;;5055461;28;20028;-84
2021/11/24 00:22:39;;;;;;;17.92;13.85;;;7.20;99.90;;;;;;5053974;28;20024;-83
2021/11/24 00:25:11;;;;;;;16.05;12.25;;;7.20;99.90;;;;;;5051138;28;20172;-84
2021/11/24 00:27:43;;;;;;;17.58;13.30;;;7.20;99.90;;;;;;5056799;28;20037;-84
2021/11/24 00:30:10;;;;;;;17.75;13.27;;;7.20;99.90;;;;;;5044952;28;20531;-84
2021/11/24 00:32:36;;;;;;;18.13;13.77;;;7.10;99.90;;;;;;5054547;28;20027;-84
2021/11/24 00:35:03;;;;;;;18.50;13.88;;;7.10;99.90;;;;;;5054356;28;20020;-84
2021/11/24 00:37:29;;;;;;;17.50;13.90;;;7.20;99.90;;;;;;5051929;28;20013;-84
2021/11/24 00:39:55;;;;;;;18.17;13.32;;;7.10;99.90;;;;;;5053312;28;20083;-84
2021/11/24 00:42:21;;;;;;;20.40;13.88;;;6.80;99.90;;;;;;5055256;28;20021;-84
2021/11/24 00:44:47;;;;;;;17.95;14.48;;;6.70;99.90;;;;;;5054378;28;20087;-83
2021/11/24 00:47:13;;;;;;;18.35;13.82;;;6.70;99.90;;;;;;5053858;28;20040;-84
2021/11/24 00:49:39;;;;;;;17.42;13.32;;;6.70;99.90;;;;;;5051740;28;20032;-84
2021/11/24 00:52:07;;;;;;;18.65;13.98;;;6.70;99.90;;;;;;5050628;28;20035;-84
2021/11/24 00:54:33;;;;;;;17.98;13.75;;;6.60;99.90;;;;;;5054984;28;20096;-84
2021/11/24 00:56:59;;;;;;;20.75;14.00;;;7.10;99.90;;;;;;5053975;28;20036;-84
2021/11/24 00:59:24;;;;;;;16.85;13.18;;;6.90;99.90;;;;;;5054059;28;20028;-83
2021/11/24 01:01:50;;;;;;;20.98;15.30;;;6.50;99.90;;;;;;5053612;28;20317;-84
2021/11/24 01:04:16;;;;;;;18.70;14.32;;;6.70;99.90;;;;;;5050089;28;20038;-83
2021/11/24 01:06:42;;;;;;;21.30;15.73;;;6.60;99.90;;;;;;5054943;28;20033;-84
2021/11/24 01:09:07;;;;;;;19.27;13.90;;;6.90;99.90;;;;;;5054271;28;20059;-83
2021/11/24 01:11:33;;;;;;;18.88;14.10;;;6.70;99.90;;;;;;5053701;28;20033;-83
2021/11/24 01:13:59;;;;;;;18.38;14.07;;;6.50;99.90;;;;;;5052816;28;20083;-84
2021/11/24 01:16:25;;;;;;;18.73;14.25;;;6.40;99.90;;;;;;5050808;28;20029;-83
2021/11/24 01:18:51;;;;;;;19.48;14.35;;;6.80;99.90;;;;;;5053876;28;20111;-84
2021/11/24 01:21:16;;;;;;;18.35;14.00;;;6.30;99.90;;;;;;5052057;28;20033;-84
2021/11/24 01:23:43;;;;;;;20.40;14.30;;;6.30;99.90;;;;;;5053809;28;20037;-83
2021/11/24 01:26:09;;;;;;;19.42;14.38;;;6.70;99.90;;;;;;5053662;28;20036;-83
2021/11/24 01:28:35;;;;;;;18.35;13.82;;;6.10;99.90;;;;;;5050590;28;20666;-84
2021/11/24 01:31:00;;;;;;;19.73;14.85;;;6.20;99.90;;;;;;5051549;28;20539;-84
2021/11/24 01:33:26;;;;;;;21.23;14.98;;;6.00;99.90;;;;;;5053949;28;20036;-83
2021/11/24 01:35:52;;;;;;;19.98;14.55;;;6.40;99.90;;;;;;5053324;28;20056;-83
2021/11/24 01:38:17;;;;;;;23.85;16.05;;;6.10;99.90;;;;;;5053561;28;20040;-84
2021/11/24 01:40:43;;;;;;;19.85;14.18;;;6.50;99.90;;;;;;5053076;28;20044;-83
2021/11/24 01:43:09;;;;;;;21.25;14.68;;;6.10;99.90;;;;;;5049514;28;20485;-84
2021/11/24 01:45:36;;;;;;;20.67;14.05;;;5.90;99.90;;;;;;5055244;28;20036;-84
2021/11/24 01:48:02;;;;;;;18.00;14.45;;;6.30;99.90;;;;;;5053819;28;20029;-83
2021/11/24 01:50:28;;;;;;;20.15;14.98;;;6.30;99.90;;;;;;5053122;28;20040;-84
2021/11/24 01:52:54;;;;;;;23.27;16.40;;;5.90;99.90;;;;;;5053847;28;20028;-84
2021/11/24 01:55:21;;;;;;;18.75;14.50;;;5.90;99.90;;;;;;5049706;28;20036;-84
2021/11/24 01:57:49;;;;;;;20.08;15.32;;;5.80;99.90;;;;;;5054133;28;20098;-84
2021/11/24 02:00:19;;;;;;;20.70;15.57;;;6.30;99.90;;;;;;5046082;28;20033;-84
2021/11/24 02:02:45;;;;;;;21.10;14.85;;;6.40;99.90;;;;;;5053205;28;20029;-84
2021/11/24 02:05:11;;;;;;;19.55;14.95;;;5.90;99.90;;;;;;5052880;28;20288;-84
2021/11/24 02:07:37;;;;;;;20.55;14.60;;;5.80;99.90;;;;;;5050380;28;20035;-84
2021/11/24 02:10:03;;;;;;;21.48;15.60;;;5.80;99.90;;;;;;5050527;28;20025;-84
2021/11/24 02:12:29;;;;;;;21.33;15.90;;;5.70;99.90;;;;;;5053966;28;20394;-83
2021/11/24 02:14:54;;;;;;;21.30;15.68;;;5.80;99.90;;;;;;5052963;28;20025;-84
2021/11/24 02:17:20;;;;;;;20.88;15.05;;;5.50;99.90;;;;;;5044434;28;20068;-84
2021/11/24 02:19:46;;;;;;;19.08;14.73;;;5.90;99.90;;;;;;5053552;28;20021;-84
2021/11/24 02:22:12;;;;;;;22.02;15.13;;;5.70;99.90;;;;;;5049058;28;20517;-83
2021/11/24 02:24:38;;;;;;;22.48;15.77;;;5.40;99.90;;;;;;5054929;28;20032;-84
2021/11/24 02:27:07;;;;;;;21.17;15.18;;;5.40;99.90;;;;;;5056336;28;20051;-84
2021/11/24 02:29:33;;;;;;;21.52;15.60;;;5.60;99.90;;;;;;5056765;28;20044;-84
2021/11/24 02:32:01;;;;;;;20.15;15.40;;;5.80;99.90;;;;;;5048444;28;20024;-84
2021/11/24 02:34:27;;;;;;;19.52;14.82;;;5.30;99.90;;;;;;5053287;28;20136;-83
2021/11/24 02:36:54;;;;;;;20.00;15.43;;;5.40;99.90;;;;;;5056209;28;20108;-83
2021/11/24 02:39:20;;;;;;;23.08;16.55;;;5.60;99.90;;;;;;5058056;28;20025;-83
2021/11/24 02:41:46;;;;;;;18.60;14.50;;;5.20;99.90;;;;;;5056802;28;20031;-83
2021/11/24 02:44:14;;;;;;;20.73;15.18;;;5.10;99.90;;;;;;5056494;28;20029;-83
2021/11/24 02:46:40;;;;;;;22.33;16.17;;;5.20;99.90;;;;;;5054091;28;20108;-83
2021/11/24 02:49:06;;;;;;;22.75;16.30;;;4.90;99.90;;;;;;5052813;28;20112;-84
2021/11/24 02:51:31;;;;;;;21.55;15.23;;;4.90;99.90;;;;;;5057005;28;20053;-83
2021/11/24 02:53:57;;;;;;;21.10;15.77;;;4.90;99.90;;;;;;5056482;28;20406;-84
2021/11/24 02:56:22;;;;;;;23.33;16.10;;;4.80;99.90;;;;;;5056391;28;20031;-83
2021/11/24 02:58:48;;;;;;;20.33;15.50;;;5.20;99.90;;;;;;5056015;28;20059;-84
2021/11/24 03:01:14;;;;;;;21.73;16.25;;;5.10;99.90;;;;;;5052246;28;20074;-83
2021/11/24 03:03:39;;;;;;;22.25;16.10;;;4.80;99.90;;;;;;5057901;28;20025;-84
2021/11/24 03:06:05;;;;;;;22.48;16.73;;;5.00;99.90;;;;;;5055683;28;20076;-83
2021/11/24 03:08:30;;;;;;;21.25;16.02;;;4.70;99.90;;;;;;5055664;28;20087;-84
2021/11/24 03:10:56;;;;;;;21.38;15.70;;;4.70;99.90;;;;;;5056208;28;20381;-84
2021/11/24 03:13:22;;;;;;;22.98;16.35;;;4.60;99.90;;;;;;5052105;28;20048;-84
2021/11/24 03:15:47;;;;;;;22.23;16.35;;;4.60;99.90;;;;;;5056877;28;20021;-83
2021/11/24 03:18:13;;;;;;;23.15;16.45;;;4.50;99.90;;;;;;5054858;28;20103;-84
2021/11/24 03:20:39;;;;;;;21.42;15.73;;;4.60;99.90;;;;;;5055580;28;20035;-84
2021/11/24 03:23:06;;;;;;;23.10;17.15;;;4.80;99.90;;;;;;5056021;28;20032;-83
2021/11/24 03:25:32;;;;;;;22.65;16.30;;;4.70;99.90;;;;;;5052158;28;20124;-84
2021/11/24 03:27:58;;;;;;;20.98;15.43;;;4.70;99.90;;;;;;5053660;28;20619;-84
2021/11/24 03:30:26;;;;;;;23.40;16.95;;;4.60;99.90;;;;;;5054953;28;20115;-84
2021/11/24 03:32:53;;;;;;;24.90;16.63;;;4.60;99.90;;;;;;5055493;28;20040;-83
2021/11/24 03:35:20;;;;;;;22.70;16.23;;;4.50;99.90;;;;;;5055817;28;20116;-84
2021/11/24 03:37:47;;;;;;;22.05;16.73;;;4.60;99.90;;;;;;5054358;28;20346;-83
2021/11/24 03:40:15;;;;;;;21.05;15.75;;;4.80;99.90;;;;;;5034905;28;20029;-84
2021/11/24 03:42:44;;;;;;;24.80;16.40;;;4.60;99.90;;;;;;5057054;28;20017;-84
2021/11/24 03:45:11;;;;;;;22.42;16.65;;;4.60;99.90;;;;;;5055148;28;20116;-83
2021/11/24 03:47:37;;;;;;;22.08;16.17;;;4.90;99.90;;;;;;5055585;28;20033;-84
2021/11/24 03:50:04;;;;;;;25.65;16.02;;;4.60;99.90;;;;;;5055096;28;20427;-84
2021/11/24 03:52:30;;;;;;;24.15;16.63;;;4.40;99.90;;;;;;5052819;28;20032;-84
2021/11/24 03:54:56;;;;;;;24.45;17.05;;;4.50;99.90;;;;;;5053506;28;20432;-84
2021/11/24 03:57:21;;;;;;;21.25;16.00;;;4.40;99.90;;;;;;5056601;28;20029;-83
2021/11/24 03:59:47;;;;;;;20.98;15.30;;;4.40;99.90;;;;;;5054742;28;20041;-84
2021/11/24 04:02:13;;;;;;;21.70;15.73;;;4.30;99.90;;;;;;5055107;28;20040;-84
2021/11/24 04:04:38;;;;;;;21.75;14.90;;;4.40;99.90;;;;;;5055011;28;20040;-84
2021/11/24 04:07:04;;;;;;;24.35;17.20;;;4.70;99.90;;;;;;5071682;28;20108;-84
2021/11/24 04:09:30;;;;;;;22.52;16.05;;;4.80;99.90;;;;;;5075126;28;20038;-84
2021/11/24 04:11:55;;;;;;;23.02;16.20;;;4.30;99.90;;;;;;5075036;28;20033;-84
2021/11/24 04:14:21;;;;;;;22.65;15.93;;;4.30;99.90;;;;;;5074446;28;20031;-84
2021/11/24 04:16:47;;;;;;;23.52;16.88;;;4.10;99.90;;;;;;5074594;28;20391;-83
2021/11/24 04:19:12;;;;;;;22.58;16.35;;;4.00;99.90;;;;;;5069005;28;20490;-84
2021/11/24 04:21:38;;;;;;;25.48;16.52;;;4.40;99.90;;;;;;5076714;28;20504;-84
2021/11/24 04:24:04;;;;;;;21.48;15.52;;;4.00;99.90;;;;;;5074387;28;20024;-84
2021/11/24 04:26:30;;;;;;;24.92;17.13;;;3.90;99.90;;;;;;5074345;28;20041;-84
2021/11/24 04:28:55;;;;;;;23.38;15.38;;;3.90;99.90;;;;;;5074694;28;20035;-84
2021/11/24 04:31:21;;;;;;;22.85;16.35;;;3.90;99.90;;;;;;5070519;28;20032;-83
2021/11/24 04:33:47;;;;;;;23.23;16.45;;;3.90;99.90;;;;;;5075218;28;20442;-84
2021/11/24 04:36:13;;;;;;;22.17;16.40;;;4.00;99.90;;;;;;5075056;28;20074;-84
2021/11/24 04:38:38;;;;;;;23.15;16.38;;;4.30;99.90;;;;;;5074740;28;20043;-84
2021/11/24 04:41:04;;;;;;;24.45;17.63;;;4.20;99.90;;;;;;5074001;28;20028;-84
2021/11/24 04:43:34;;;;;;;24.45;17.35;;;3.80;99.90;;;;;;5069881;28;20088;-84
2021/11/24 04:46:00;;;;;;;24.52;17.42;;;4.10;99.90;;;;;;5072604;28;20059;-84
2021/11/24 04:48:27;;;;;;;23.35;17.00;;;4.20;99.90;;;;;;5073873;28;20427;-84
2021/11/24 04:50:52;;;;;;;24.05;17.42;;;3.80;99.90;;;;;;5074275;28;20050;-84
2021/11/24 04:53:18;;;;;;;24.27;17.48;;;3.80;99.90;;;;;;5065290;28;20036;-84
2021/11/24 04:55:44;;;;;;;24.42;17.65;;;3.70;99.90;;;;;;5073609;28;20488;-84
2021/11/24 04:58:10;;;;;;;26.25;17.38;;;3.90;99.90;;;;;;5069226;28;20058;-84
2021/11/24 05:00:36;;;;;;;23.52;16.02;;;3.60;99.90;;;;;;5076734;28;20021;-84
2021/11/24 05:03:02;;;;;;;23.92;17.00;;;3.60;99.90;;;;;;5073954;28;20032;-83
2021/11/24 05:05:30;;;;;;;24.45;17.23;;;3.90;99.90;;;;;;5061286;28;20408;-83
2021/11/24 05:07:57;;;;;;;25.73;17.63;;;4.00;99.90;;;;;;5053677;28;20439;-83
2021/11/24 05:10:23;;;;;;;21.08;16.00;;;3.50;99.90;;;;;;5050578;28;20029;-84
2021/11/24 05:12:50;;;;;;;23.85;17.17;;;3.50;99.90;;;;;;5053940;28;20025;-84
2021/11/24 05:15:36;;;;;;;28.50;17.15;;;3.50;99.90;;;;;;5054427;28;20428;-84
2021/11/24 05:18:06;;;;;;;24.45;17.33;;;3.70;99.90;;;;;;5053723;28;20490;-84
2021/11/24 05:20:33;;;;;;;26.40;19.67;;;3.90;99.90;;;;;;5053951;28;20028;-85
2021/11/24 05:23:04;;;;;;;26.98;19.45;;;3.50;99.90;;;;;;5051458;28;20029;-84
2021/11/24 05:25:30;;;;;;;26.20;18.10;;;3.60;99.90;;;;;;5049395;28;20621;-84
2021/11/24 05:27:57;;;;;;;26.40;19.20;;;3.50;99.90;;;;;;5051734;28;20025;-84
2021/11/24 05:30:22;;;;;;;28.58;19.38;;;3.70;99.90;;;;;;5055901;28;20024;-85
2021/11/24 05:32:49;;;;;;;28.10;19.75;;;3.40;99.90;;;;;;5053236;28;20078;-84
2021/11/24 05:35:20;;;;;;;28.25;18.27;;;3.40;99.90;;;;;;5053868;28;20142;-84
2021/11/24 05:37:46;;;;;;;26.02;17.83;;;3.30;99.90;;;;;;5053569;28;20025;-84
2021/11/24 05:40:12;;;;;;;22.92;16.27;;;3.10;99.90;;;;;;5049259;28;20397;-84
2021/11/24 05:42:39;;;;;;;23.60;16.50;;;3.00;99.90;;;;;;5055522;28;20071;-84
2021/11/24 05:47:54;;;;;;;25.90;16.95;;;3.20;99.90;;;;;;5053774;28;20102;-84
2021/11/24 05:50:19;;;;;;;24.02;17.23;;;3.50;99.90;;;;;;5053149;28;20108;-84
2021/11/24 05:52:45;;;;;;;25.05;16.73;;;3.10;99.90;;;;;;5053806;28;20116;-84
2021/11/24 05:55:11;;;;;;;24.50;17.77;;;3.30;99.90;;;;;;5049137;28;20116;-84
2021/11/24 05:57:36;;;;;;;25.73;17.85;;;3.20;99.90;;;;;;5055035;28;20087;-84
2021/11/24 06:00:04;;;;;;;25.80;18.42;;;3.20;99.90;;;;;;5053527;28;20036;-84
2021/11/24 06:02:30;;;;;;;26.48;18.27;;;3.10;99.90;;;;;;5056116;28;20104;-84
2021/11/24 06:04:55;;;;;;;25.67;17.50;;;3.10;99.90;;;;;;5055355;28;20497;-84
2021/11/24 06:07:21;;;;;;;24.73;17.75;;;3.10;99.90;;;;;;5053648;28;20032;-84
2021/11/24 06:09:46;;;;;;;27.02;17.38;;;3.40;99.90;;;;;;5057434;28;20036;-83
2021/11/24 06:12:12;;;;;;;24.08;16.73;;;3.50;99.90;;;;;;5055965;28;20017;-84
2021/11/24 06:14:38;;;;;;;25.58;17.20;;;3.20;99.90;;;;;;5057302;28;20033;-84
2021/11/24 06:17:03;;;;;;;23.40;17.00;;;3.40;99.90;;;;;;5057259;28;20472;-84
2021/11/24 06:19:29;;;;;;;24.23;17.48;;;3.10;99.90;;;;;;5054477;28;20074;-84
2021/11/24 06:21:55;;;;;;;28.20;17.92;;;3.30;99.90;;;;;;5051743;28;20092;-84
2021/11/24 06:24:20;;;;;;;25.27;18.33;;;3.10;99.90;;;;;;5058117;28;20060;-84
2021/11/24 06:26:46;;;;;;;29.20;18.58;;;3.10;99.90;;;;;;5056608;28;20041;-83
2021/11/24 06:29:12;;;;;;;28.02;18.08;;;3.00;99.90;;;;;;5056941;28;20137;-84
2021/11/24 06:31:37;;;;;;;26.75;17.70;;;3.10;99.90;;;;;;5055407;28;20066;-84
2021/11/24 06:34:03;;;;;;;25.25;17.75;;;3.40;99.90;;;;;;5053928;28;20095;-84
2021/11/24 06:36:29;;;;;;;26.92;17.73;;;3.10;99.90;;;;;;5058610;28;20104;-84
2021/11/24 06:38:54;;;;;;;24.27;17.80;;;3.10;99.90;;;;;;5056097;28;20025;-84
2021/11/24 06:41:20;;;;;;;27.85;17.40;;;3.30;99.90;;;;;;5044877;28;20033;-84
2021/11/24 06:43:46;;;;;;;26.42;17.40;;;3.50;99.90;;;;;;5054969;28;20029;-84
2021/11/24 06:46:12;;;;;;;26.52;18.33;;;3.10;99.90;;;;;;5035959;28;20049;-84
2021/11/24 06:48:37;;;;;;;32.45;21.02;;;2.90;99.90;;;;;;5058823;28;20385;-84
2021/11/24 06:51:03;;;;;;;33.10;22.05;;;2.90;99.90;;;;;;5056199;28;20033;-84
2021/11/24 06:53:29;;;;;;;33.55;21.63;;;2.80;99.90;;;;;;5055789;28;20033;-84
2021/11/24 06:55:55;;;;;;;37.78;22.20;;;2.90;99.90;;;;;;5056330;28;20098;-84
2021/11/24 06:58:21;;;;;;;33.08;22.15;;;2.90;99.90;;;;;;5052839;28;20029;-84
2021/11/24 07:00:47;;;;;;;39.33;23.85;;;2.90;99.90;;;;;;5056695;28;20029;-84
2021/11/24 07:03:12;;;;;;;36.95;22.70;;;2.90;99.90;;;;;;5053961;28;20052;-84
2021/11/24 07:05:38;;;;;;;35.00;22.52;;;3.50;99.90;;;;;;5055541;28;20049;-83
2021/11/24 07:08:04;;;;;;;36.72;23.63;;;3.00;99.90;;;;;;5055358;28;20477;-84
2021/11/24 07:10:32;;;;;;;37.50;23.10;;;3.00;99.90;;;;;;5053280;28;20055;-83
2021/11/24 07:12:57;;;;;;;35.72;23.60;;;3.00;99.90;;;;;;5054208;28;20022;-91
2021/11/24 07:15:23;;;;;;;34.13;21.45;;;3.00;99.90;;;;;;5058403;28;20025;-92
2021/11/24 07:17:49;;;;;;;31.50;20.80;;;3.10;99.90;;;;;;5058513;28;20077;-90
2021/11/24 07:20:16;;;;;;;34.17;21.50;;;3.30;99.90;;;;;;5049568;28;20062;-89
2021/11/24 07:22:41;;;;;;;32.40;19.42;;;3.90;99.90;;;;;;5065492;28;20033;-85
2021/11/24 07:25:09;;;;;;;29.00;19.63;;;3.80;99.90;;;;;;5051844;28;20043;-87
2021/11/24 07:27:34;;;;;;;42.28;24.50;;;4.40;99.90;;;;;;5071918;28;20472;-85
2021/11/24 07:30:00;;;;;;;38.45;24.80;;;4.90;99.90;;;;;;5056166;28;20117;-88
2021/11/24 07:32:26;;;;;;;32.65;20.88;;;4.70;99.90;;;;;;5045806;28;20094;-89
2021/11/24 07:34:52;;;;;;;28.02;20.73;;;4.90;99.90;;;;;;5056498;28;20619;-87
2021/11/24 07:37:17;;;;;;;29.67;20.13;;;4.80;99.90;;;;;;5048638;28;20045;-86
2021/11/24 07:39:44;;;;;;;27.25;18.48;;;5.40;99.90;;;;;;5057126;28;20028;-94
2021/11/24 07:42:10;;;;;;;25.83;18.40;;;4.60;99.90;;;;;;5046353;28;20106;-87
2021/11/24 07:44:36;;;;;;;26.92;17.02;;;4.60;99.90;;;;;;5054790;28;20499;-85
2021/11/24 07:47:02;;;;;;;25.30;17.75;;;4.90;99.90;;;;;;5055192;28;20036;-87
2021/11/24 07:49:27;;;;;;;25.02;17.52;;;5.10;99.90;;;;;;5052479;28;20027;-89
2021/11/24 07:51:53;;;;;;;27.23;18.65;;;5.30;99.90;;;;;;5054643;28;20079;-86
2021/11/24 07:54:19;;;;;;;27.90;19.98;;;5.00;99.90;;;;;;5056171;28;20123;-87
2021/11/24 07:56:44;;;;;;;33.47;22.42;;;4.90;99.90;;;;;;5055169;28;20018;-87
2021/11/24 07:59:10;;;;;;;31.40;21.65;;;5.70;99.90;;;;;;5053573;28;20033;-87
2021/11/24 08:01:36;;;;;;;31.17;21.27;;;6.60;99.90;;;;;;5046956;28;20030;-87
2021/11/24 08:04:01;;;;;;;37.75;21.98;;;6.20;99.90;;;;;;5049065;28;20123;-86
2021/11/24 08:06:27;;;;;;;29.52;20.85;;;5.80;99.90;;;;;;5056775;28;20033;-86
2021/11/24 08:08:53;;;;;;;29.50;20.23;;;5.80;99.90;;;;;;5054765;28;20036;-87
2021/11/24 08:11:19;;;;;;;26.25;18.63;;;5.70;99.90;;;;;;5054684;28;20037;-87
2021/11/24 08:13:44;;;;;;;27.80;18.33;;;5.30;99.90;;;;;;5054518;28;20017;-87
2021/11/24 08:16:10;;;;;;;25.90;18.48;;;4.80;99.90;;;;;;5048819;28;20041;-86
2021/11/24 08:18:36;;;;;;;30.33;18.83;;;4.90;99.90;;;;;;5055810;28;20216;-86
2021/11/24 08:21:01;;;;;;;24.70;18.38;;;5.40;99.90;;;;;;5054155;28;20405;-86
2021/11/24 08:23:27;;;;;;;25.63;18.20;;;5.10;99.90;;;;;;5054478;28;20077;-86
2021/11/24 08:25:53;;;;;;;24.80;18.52;;;5.40;99.90;;;;;;5054749;28;20167;-86
2021/11/24 08:28:18;;;;;;;26.92;18.42;;;5.80;99.90;;;;;;5050530;28;20032;-87
2021/11/24 08:30:44;;;;;;;29.20;19.50;;;5.60;99.90;;;;;;5056125;28;20408;-86
2021/11/24 08:33:10;;;;;;;25.25;18.40;;;5.90;99.90;;;;;;5053007;28;20051;-86
2021/11/24 08:35:37;;;;;;;27.23;17.92;;;6.10;99.90;;;;;;5054439;28;20036;-87
2021/11/24 08:38:03;;;;;;;26.30;18.10;;;7.00;99.90;;;;;;5052609;28;20032;-87
2021/11/24 08:40:29;;;;;;;26.85;17.65;;;7.90;99.90;;;;;;5050502;28;20033;-87
2021/11/24 08:42:55;;;;;;;23.60;15.82;;;9.20;99.90;;;;;;5053208;28;20017;-87
2021/11/24 08:45:20;;;;;;;23.90;16.67;;;8.50;99.90;;;;;;5044633;28;20071;-87
2021/11/24 08:47:47;;;;;;;22.27;16.70;;;6.90;99.90;;;;;;5054865;28;20029;-86
2021/11/24 08:50:14;;;;;;;26.00;18.27;;;6.40;99.90;;;;;;5045017;28;20025;-87
2021/11/24 08:52:40;;;;;;;26.00;18.15;;;6.40;99.90;;;;;;5053359;28;20555;-86
2021/11/24 08:55:07;;;;;;;29.08;18.38;;;6.30;99.90;;;;;;5050798;28;20413;-86
2021/11/24 08:57:33;;;;;;;26.17;18.85;;;6.30;99.90;;;;;;5055900;28;20033;-87
2021/11/24 08:59:59;;;;;;;25.20;18.40;;;6.10;99.90;;;;;;5054277;28;20063;-86
2021/11/24 09:02:28;;;;;;;24.73;18.13;;;6.40;99.90;;;;;;5053846;28;20400;-87
2021/11/24 09:04:54;;;;;;;27.10;18.40;;;6.10;99.90;;;;;;5050190;28;20045;-86
2021/11/24 09:07:20;;;;;;;29.08;20.13;;;6.20;99.90;;;;;;5050408;28;20111;-87
2021/11/24 09:09:45;;;;;;;27.67;19.17;;;6.40;99.90;;;;;;5055761;28;20100;-86
2021/11/24 09:12:11;;;;;;;26.55;20.35;;;6.30;99.90;;;;;;5054137;28;20029;-86
2021/11/24 09:14:37;;;;;;;27.70;19.23;;;6.40;99.90;;;;;;5053597;28;20306;-87
2021/11/24 09:17:03;;;;;;;29.77;19.92;;;6.80;99.90;;;;;;5052392;28;20033;-87
2021/11/24 09:19:28;;;;;;;27.02;18.98;;;6.70;99.90;;;;;;5049824;28;20017;-87
2021/11/24 09:21:55;;;;;;;25.75;19.30;;;6.80;99.90;;;;;;5051666;28;20025;-87
2021/11/24 09:24:25;;;;;;;24.45;17.55;;;8.80;99.90;;;;;;5055360;28;20024;-86
2021/11/24 09:26:59;;;;;;;24.60;18.83;;;10.30;99.90;;;;;;5053693;28;20044;-86
2021/11/24 09:29:25;;;;;;;26.52;18.35;;;9.60;99.90;;;;;;5053255;28;20045;-86
2021/11/24 09:31:52;;;;;;;26.70;18.65;;;9.10;99.90;;;;;;5052331;28;20031;-86
2021/11/24 09:34:18;;;;;;;25.50;18.35;;;9.10;99.90;;;;;;5049617;28;20032;-85
2021/11/24 09:36:43;;;;;;;25.10;17.80;;;13.40;99.90;;;;;;5058827;28;20029;-86
2021/11/24 09:39:10;;;;;;;23.83;17.48;;;18.40;99.90;;;;;;5057761;28;20490;-86
2021/11/24 09:41:41;;;;;;;25.48;17.40;;;14.80;99.90;;;;;;5057893;28;20052;-86
2021/11/24 09:44:07;;;;;;;22.77;18.42;;;17.40;99.90;;;;;;5057309;28;20032;-86
2021/11/24 09:46:33;;;;;;;23.30;18.67;;;17.30;99.90;;;;;;5055867;28;20079;-85
2021/11/24 09:49:03;;;;;;;23.75;18.42;;;14.70;99.90;;;;;;5054895;28;20052;-86
2021/11/24 09:51:31;;;;;;;24.15;19.10;;;17.80;99.90;;;;;;5057854;28;20028;-86
2021/11/24 09:54:00;;;;;;;25.65;18.52;;;19.40;99.90;;;;;;5057367;28;20099;-86
2021/11/24 09:56:26;;;;;;;24.48;18.17;;;21.20;99.90;;;;;;5056735;28;20039;-86
2021/11/24 09:58:52;;;;;;;24.38;18.73;;;22.60;99.90;;;;;;5055638;28;20024;-84
2021/11/24 10:01:17;;;;;;;27.55;19.17;;;23.30;99.90;;;;;;5053178;28;20055;-84
2021/11/24 10:03:43;;;;;;;21.90;18.77;;;24.20;99.90;;;;;;5058725;28;20128;-84
2021/11/24 10:06:09;;;;;;;21.77;18.88;;;22.60;99.90;;;;;;5056819;28;20091;-84
2021/11/24 10:08:35;;;;;;;23.23;19.25;;;24.20;99.90;;;;;;5057416;28;20033;-83
2021/11/24 10:11:01;;;;;;;24.25;20.00;;;23.80;99.90;;;;;;5057027;28;20017;-83
2021/11/24 10:13:27;;;;;;;23.23;19.85;;;23.40;99.90;;;;;;5054038;28;20029;-83
2021/11/24 10:15:57;;;;;;;22.23;19.33;;;20.10;99.90;;;;;;5056844;28;20541;-83
2021/11/24 10:18:32;;;;;;;24.73;19.75;;;18.30;99.90;;;;;;5058187;28;20025;-84
2021/11/24 10:21:06;;;;;;;23.45;19.90;;;17.10;99.90;;;;;;5056881;28;20036;-83
2021/11/24 10:23:40;;;;;;;20.75;18.55;;;20.00;99.90;;;;;;5056856;28;20096;-83
2021/11/24 10:26:36;;;;;;;22.65;19.30;;;23.00;99.90;;;;;;5056776;28;20488;-84
2021/11/24 10:29:06;;;;;;;22.88;19.83;;;23.50;99.90;;;;;;5055373;28;20037;-83
2021/11/24 10:31:41;;;;;;;22.15;19.75;;;24.00;99.90;;;;;;5054219;28;20021;-84
2021/11/24 10:34:41;;;;;;;21.27;18.38;;;23.50;99.90;;;;;;5052949;28;20028;-84
2021/11/24 10:37:16;;;;;;;21.63;19.23;;;24.00;99.90;;;;;;5067242;28;20033;-84
2021/11/24 10:39:53;;;;;;;22.60;19.95;;;24.80;99.90;;;;;;5065960;28;20109;-83
2021/11/24 10:42:30;;;;;;;22.02;19.63;;;24.40;99.90;;;;;;5055548;28;20032;-84
2021/11/24 10:44:59;;;;;;;22.83;19.50;;;24.40;99.90;;;;;;5056242;28;20025;-83
2021/11/24 10:47:29;;;;;;;21.00;18.85;;;24.60;99.90;;;;;;5055410;28;20029;-84
2021/11/24 10:49:57;;;;;;;21.60;18.77;;;25.20;99.90;;;;;;5056079;28;20029;-83
2021/11/24 10:52:23;;;;;;;20.40;18.35;;;26.10;99.90;;;;;;5053247;28;20025;-83
2021/11/24 10:55:15;;;;;;;22.25;19.92;;;26.50;99.90;;;;;;5056565;28;20163;-84
2021/11/24 10:57:44;;;;;;;21.50;19.15;;;26.90;99.90;;;;;;5058565;28;20052;-83
2021/11/24 11:00:16;;;;;;;22.83;19.85;;;26.40;99.90;;;;;;5055706;28;20120;-83
2021/11/24 11:02:46;;;;;;;21.20;19.10;;;27.00;99.90;;;;;;5056077;28;20025;-84
2021/11/24 11:05:18;;;;;;;22.70;20.40;;;26.50;99.90;;;;;;5055800;28;20549;-83
2021/11/24 11:07:49;;;;;;;21.35;19.15;;;27.10;99.90;;;;;;5055547;28;20024;-83
2021/11/24 11:10:18;;;;;;;21.52;19.30;;;26.90;99.90;;;;;;5016555;28;20464;-83
2021/11/24 11:12:50;;;;;;;22.80;20.45;;;26.00;99.90;;;;;;5065552;28;20024;-83
2021/11/24 11:15:23;;;;;;;23.77;21.27;;;25.70;99.90;;;;;;5054451;28;20432;-83
2021/11/24 11:18:20;;;;;;;21.98;19.67;;;26.20;99.90;;;;;;5054627;28;20039;-83
2021/11/24 11:21:03;;;;;;;25.15;22.38;;;26.50;99.90;;;;;;5055476;28;20108;-83
2021/11/24 11:23:35;;;;;;;22.92;20.63;;;25.50;99.90;;;;;;5055352;28;20040;-83
2021/11/24 11:26:03;;;;;;;22.90;20.48;;;25.10;99.90;;;;;;5055468;28;20077;-83
2021/11/24 11:28:31;;;;;;;23.23;20.25;;;25.40;99.90;;;;;;5053019;28;20029;-83
2021/11/24 11:31:01;;;;;;;21.65;19.55;;;26.20;99.90;;;;;;5053629;28;20437;-83
2021/11/24 11:33:32;;;;;;;23.10;20.67;;;26.40;99.90;;;;;;5055664;28;20545;-83
2021/11/24 11:36:07;;;;;;;22.08;19.85;;;26.70;99.90;;;;;;5055566;28;20053;-83
2021/11/24 11:38:34;;;;;;;21.92;19.63;;;26.00;99.90;;;;;;5055869;28;20090;-83
2021/11/24 11:41:01;;;;;;;23.95;21.33;;;26.20;99.90;;;;;;5055131;28;20056;-82
2021/11/24 11:43:27;;;;;;;22.15;19.95;;;26.10;99.90;;;;;;5052149;28;20126;-83
2021/11/24 11:45:54;;;;;;;21.98;19.65;;;26.00;99.90;;;;;;5054879;28;20577;-83
2021/11/24 11:48:31;;;;;;;22.73;20.48;;;26.30;99.90;;;;;;5056611;28;20039;-83
2021/11/24 11:51:02;;;;;;;21.35;19.25;;;24.80;99.90;;;;;;5055244;28;20025;-83
2021/11/24 11:53:39;;;;;;;129.48;84.50;;;24.00;99.90;;;;;;5053636;28;20032;-83
2021/11/24 11:56:21;;;;;;;22.17;19.98;;;21.90;99.90;;;;;;5053846;28;20394;-83
2021/11/24 11:59:05;;;;;;;22.48;20.17;;;22.00;99.90;;;;;;5053695;28;20520;-83
2021/11/24 12:01:32;;;;;;;89.60;65.53;;;20.40;99.90;;;;;;5037071;28;20029;-83
2021/11/24 12:04:20;;;;;;;57.28;43.92;;;21.20;99.90;;;;;;5053641;28;20021;-82
2021/11/24 12:07:03;;;;;;;22.77;20.38;;;22.60;99.90;;;;;;5064775;28;20063;-82
2021/11/24 12:09:39;;;;;;;78.63;57.42;;;20.50;99.90;;;;;;5054754;28;20408;-83
2021/11/24 12:12:10;;;;;;;32.47;27.48;;;19.10;99.90;;;;;;5055222;28;20029;-83
2021/11/24 12:14:54;;;;;;;36.47;29.75;;;18.80;99.90;;;;;;5054281;28;20595;-83
2021/11/24 12:17:29;;;;;;;50.97;37.83;;;19.10;99.90;;;;;;5055030;28;20021;-83
2021/11/24 12:19:55;;;;;;;22.83;20.08;;;18.10;99.90;;;;;;5054650;28;20082;-83
2021/11/24 12:25:20;;;;;;;24.63;20.50;;;16.80;99.90;;;;;;5034389;28;20141;-82
2021/11/24 12:27:57;;;;;;;22.13;19.20;;;16.90;99.90;;;;;;5064355;28;20048;-83
2021/11/24 12:30:54;;;;;;;44.42;37.03;;;15.90;99.90;;;;;;5053927;28;20033;-83
2021/11/24 12:33:30;;;;;;;30.08;24.30;;;15.20;99.90;;;;;;5055362;28;20044;-83
2021/11/24 12:36:04;;;;;;;22.13;19.70;;;14.90;99.90;;;;;;5052734;28;20017;-83
2021/11/24 12:38:48;;;;;;;35.10;29.60;;;15.00;99.90;;;;;;5053379;28;20429;-83
2021/11/24 12:41:16;;;;;;;24.42;19.77;;;15.80;99.90;;;;;;5054324;28;20021;-83